熊本市, 日本

2014年11月28日 06時36分 (GMT +0900)
Kumamoto | Change Station
CLOSE
Current Station
機場
Location: Kumamoto,
海拔: 643 ft
附近的氣象站

海拔 643 ft 32.84 °N, 130.86 °E | Updated 26 minutes ago

Mostly Cloudy
多雲
52 °F
感覺像 52 °F
6
風 變化 風 來自 東北偏東

今日
高 -- | 低 -- °F
--% 降水機率
昨天
高 -- | 低 -- °F
Precip. -- 英寸
6:58 AM 5:10 PM
眉月, 33% visible
氣壓 30.12 英寸
能見度 6.2 英里
多雲 多雲 5000 ft
露點 45 °F
濕度 76%
降雨量 0.00 英寸
積雪深度 不適用。
紫外線 0 / 12
花粉 不適用。
空氣質素 不適用。
Flu Activity 不適用。
SPECI RJFT 272110Z 06005KT 9999 BKN050 11/07 Q1020 RMK 5SC050 A3014

More Conditions Fewer Conditions

氣壓 30.12 英寸
能見度 6.2 英里
多雲 多雲 5000 ft
露點 45 °F
濕度 76%
降雨量 0.00 英寸
積雪深度 不適用。
紫外線 0 / 12
花粉 不適用。
空氣質素 不適用。
Flu Activity 不適用。
SPECI RJFT 272110Z 06005KT 9999 BKN050 11/07 Q1020 RMK 5SC050 A3014

More Conditions Fewer Conditions

10-Day Weather Forecast

Almanac

天文

Nov. 28, 2014 昇起 降落
實際時間
民用曙暮光
航海曙暮光
天文學微明
月亮
可見光的長度
白晝時間
Tomorrow will be .
, % of the Moon is Illuminated

今天之最

國家高溫 國家低溫

Community

WunderPhotos

Upload Photos

1,774,108 照片已上傳!

WunderBlogs® & News

Nearby

空氣質素

  空氣質素 空氣質素指數 污染物
Not available.

積雪量

Station 深度 海拔

地震活動

城市 距離 時間和日期
顯示的最小幅度是2.5。

沿海水溫

地點 溫度

附近的氣象站